createdAt,value
2023-01-07T00:04:32.197Z,101112.00
2023-01-07T00:09:34.469Z,101104.97
2023-01-07T00:14:36.478Z,101104.88
2023-01-07T00:19:38.361Z,101096.91
2023-01-07T00:24:40.546Z,101091.63
2023-01-07T00:29:42.608Z,101091.56
2023-01-07T00:34:47.616Z,101090.81
2023-01-07T00:39:49.494Z,101087.19
2023-01-07T00:44:51.300Z,101082.72
2023-01-07T00:49:53.136Z,101072.97
2023-01-07T00:54:55.037Z,101069.38
2023-01-07T00:59:57.216Z,101063.09
2023-01-07T01:04:59.121Z,101064.00
2023-01-07T01:10:01.405Z,101056.19
2023-01-07T01:15:09.847Z,101051.13
2023-01-07T01:20:14.802Z,101044.75
2023-01-07T01:25:17.161Z,101051.94
2023-01-07T01:30:19.431Z,101043.91
2023-01-07T01:35:22.468Z,101038.50
2023-01-07T01:40:29.263Z,101040.25
2023-01-07T01:45:31.381Z,101037.66
2023-01-07T01:50:43.967Z,101038.41
2023-01-07T01:56:14.793Z,101029.75
2023-01-07T02:01:17.215Z,101025.38
2023-01-07T02:06:24.005Z,101014.50
2023-01-07T02:11:46.172Z,101018.28
2023-01-07T02:16:53.919Z,101008.38
2023-01-07T02:22:13.290Z,101018.91
2023-01-07T02:27:33.970Z,101013.97
2023-01-07T02:32:48.133Z,101001.34
2023-01-07T02:38:05.121Z,100991.72
2023-01-07T02:43:33.989Z,100997.97
2023-01-07T02:48:36.895Z,100987.16
2023-01-07T02:53:42.398Z,100983.50
2023-01-07T02:59:25.817Z,100982.84
2023-01-07T03:04:51.749Z,100976.38
2023-01-07T03:10:02.931Z,100964.03
2023-01-07T03:15:11.154Z,100961.50
2023-01-07T03:20:15.223Z,100958.16
2023-01-07T03:25:19.366Z,100954.28
2023-01-07T03:30:22.476Z,100954.28
2023-01-07T03:35:25.448Z,100963.16
2023-01-07T03:40:27.584Z,100967.56
2023-01-07T03:45:29.502Z,100957.66
2023-01-07T03:50:31.405Z,100957.78
2023-01-07T03:55:33.332Z,100953.53
2023-01-07T04:00:35.197Z,100944.66
2023-01-07T04:05:37.254Z,100929.59
2023-01-07T04:10:39.188Z,100933.09
2023-01-07T04:15:41.548Z,100935.97
2023-01-07T04:20:47.060Z,100917.16
2023-01-07T04:25:50.111Z,100910.22
2023-01-07T04:30:52.071Z,100898.59
2023-01-07T04:35:54.080Z,100896.88
2023-01-07T04:40:55.918Z,100889.69
2023-01-07T04:45:58.167Z,100881.72
2023-01-07T04:51:00.339Z,100872.13
2023-01-07T04:56:02.447Z,100867.50
2023-01-07T05:01:05.083Z,100867.44
2023-01-07T05:06:07.122Z,100861.34
2023-01-07T05:11:09.005Z,100841.19
2023-01-07T05:16:11.126Z,100838.47
2023-01-07T05:21:13.152Z,100837.50
2023-01-07T05:26:15.142Z,100829.69
2023-01-07T05:31:17.215Z,100836.72
2023-01-07T05:36:19.212Z,100822.59
2023-01-07T05:41:20.961Z,100818.94
2023-01-07T05:46:22.891Z,100822.38
2023-01-07T05:51:24.887Z,100818.81
2023-01-07T05:56:26.712Z,100810.84
2023-01-07T06:01:28.967Z,100805.75
2023-01-07T06:06:31.103Z,100801.34
2023-01-07T06:11:33.050Z,100792.38
2023-01-07T06:16:35.769Z,100795.75
2023-01-07T06:21:38.008Z,100793.31
2023-01-07T06:26:40.061Z,100788.72
2023-01-07T06:31:42.033Z,100794.03
2023-01-07T06:36:44.155Z,100777.41
2023-01-07T06:41:45.918Z,100766.69
2023-01-07T06:46:47.713Z,100759.66
2023-01-07T06:51:49.572Z,100761.69
2023-01-07T06:56:51.434Z,100748.25
2023-01-07T07:01:53.497Z,100740.91
2023-01-07T07:06:55.832Z,100741.66
2023-01-07T07:11:57.699Z,100735.44
2023-01-07T07:16:59.845Z,100729.38
2023-01-07T07:22:03.880Z,100730.16
2023-01-07T07:27:06.425Z,100727.56
2023-01-07T07:32:09.366Z,100723.22
2023-01-07T07:37:11.240Z,100718.78
2023-01-07T07:42:13.277Z,100727.25
2023-01-07T07:47:15.071Z,100719.06
2023-01-07T07:52:17.651Z,100700.53
2023-01-07T07:57:19.617Z,100701.41
2023-01-07T08:02:21.701Z,100700.41
2023-01-07T08:07:32.222Z,100698.81
2023-01-07T08:12:38.811Z,100696.78
2023-01-07T08:17:40.900Z,100694.44
2023-01-07T08:22:43.121Z,100687.41
2023-01-07T08:27:45.270Z,100688.94
2023-01-07T08:32:47.204Z,100671.44
2023-01-07T08:37:49.508Z,100664.09
2023-01-07T08:42:51.462Z,100666.81
2023-01-07T08:47:53.333Z,100662.56
2023-01-07T08:52:55.171Z,100665.09
2023-01-07T08:57:57.744Z,100650.03
2023-01-07T09:02:59.447Z,100659.63
2023-01-07T09:08:03.053Z,100644.78
2023-01-07T09:13:05.131Z,100650.09
2023-01-07T09:18:07.359Z,100646.44
2023-01-07T09:23:09.295Z,100634.03
2023-01-07T09:28:11.259Z,100633.00
2023-01-07T09:33:13.530Z,100623.84
2023-01-07T09:38:15.744Z,100618.34
2023-01-07T09:44:00.035Z,100607.13
2023-01-07T09:49:04.590Z,100607.63
2023-01-07T09:54:19.009Z,100611.78
2023-01-07T09:59:21.069Z,100613.47
2023-01-07T10:04:34.927Z,100591.44
2023-01-07T10:09:45.159Z,100577.41
2023-01-07T10:15:06.040Z,100569.47
2023-01-07T10:20:30.344Z,100566.09
2023-01-07T10:25:37.877Z,100557.66
2023-01-07T10:30:46.944Z,100537.66
2023-01-07T10:35:58.552Z,100522.59
2023-01-07T10:41:07.954Z,100502.97
2023-01-07T10:46:24.188Z,100489.72
2023-01-07T10:51:47.811Z,100479.81
2023-01-07T10:56:58.413Z,100456.16
2023-01-07T11:02:01.474Z,100446.22
2023-01-07T11:07:13.438Z,100430.53
2023-01-07T11:13:00.154Z,100430.28
2023-01-07T11:18:20.275Z,100427.63
2023-01-07T11:23:31.049Z,100419.56
2023-01-07T11:28:34.042Z,100411.09
2023-01-07T11:34:02.958Z,100396.25
2023-01-07T11:39:18.423Z,100387.13
2023-01-07T11:44:20.739Z,100376.19
2023-01-07T11:49:27.010Z,100368.38
2023-01-07T11:54:30.115Z,100355.75
2023-01-07T11:59:32.165Z,100348.75
2023-01-07T12:04:36.723Z,100331.38
2023-01-07T12:09:41.137Z,100325.28
2023-01-07T12:14:48.150Z,100346.47
2023-01-07T12:20:20.934Z,100318.50
2023-01-07T12:25:30.046Z,100310.72
2023-01-07T12:31:13.729Z,100293.06
2023-01-07T12:36:35.727Z,100282.31
2023-01-07T12:41:41.925Z,100282.97
2023-01-07T12:47:30.834Z,100280.56
2023-01-07T12:52:51.641Z,100269.63
2023-01-07T12:58:19.886Z,100265.88
2023-01-07T13:03:34.620Z,100255.44
2023-01-07T13:08:58.566Z,100259.69
2023-01-07T13:14:00.890Z,100243.00
2023-01-07T13:19:03.116Z,100237.50
2023-01-07T13:24:55.005Z,100235.53
2023-01-07T13:30:12.748Z,100226.06
2023-01-07T13:35:20.455Z,100221.63
2023-01-07T13:41:00.936Z,100214.78
2023-01-07T13:46:20.612Z,100203.81
2023-01-07T13:51:32.342Z,100200.94
2023-01-07T13:56:37.640Z,100205.09
2023-01-07T14:02:17.208Z,100198.84
2023-01-07T14:07:20.292Z,100189.59
2023-01-07T14:12:43.993Z,100173.53
2023-01-07T14:18:11.921Z,100158.91
2023-01-07T14:23:31.557Z,100151.97
2023-01-07T14:28:55.275Z,100162.47
2023-01-07T14:34:07.590Z,100138.25
2023-01-07T14:39:30.423Z,100137.50
2023-01-07T14:44:32.691Z,100129.53
2023-01-07T14:49:43.556Z,100122.59
2023-01-07T14:54:51.220Z,100099.75
2023-01-07T15:00:04.582Z,100097.53
2023-01-07T15:05:18.803Z,100092.22
2023-01-07T15:10:42.680Z,100092.72
2023-01-07T15:16:01.713Z,100086.91
2023-01-07T15:21:46.046Z,100090.63
2023-01-07T15:27:10.500Z,100091.38
2023-01-07T15:32:33.928Z,100088.63
2023-01-07T15:37:35.866Z,100070.00
2023-01-07T15:42:37.900Z,100060.56
2023-01-07T15:47:43.577Z,100067.00
2023-01-07T15:53:13.764Z,100046.34
2023-01-07T15:58:22.118Z,100047.88
2023-01-07T16:03:24.819Z,100048.69
2023-01-07T16:08:31.279Z,100055.19
2023-01-07T16:13:33.654Z,100050.16
2023-01-07T16:18:35.636Z,100056.38
2023-01-07T16:23:38.895Z,100046.28
2023-01-07T16:29:02.195Z,100040.88
2023-01-07T16:34:26.397Z,100041.81
2023-01-07T16:39:32.286Z,100035.75
2023-01-07T16:44:57.927Z,100045.69
2023-01-07T16:50:20.317Z,100038.66
2023-01-07T16:55:48.803Z,100033.19
2023-01-07T17:00:53.629Z,100035.25
2023-01-07T17:06:08.023Z,100034.47
2023-01-07T17:11:28.131Z,100040.34
2023-01-07T17:16:32.512Z,100027.16
2023-01-07T17:21:37.097Z,100017.59
2023-01-07T17:26:42.261Z,99997.41
2023-01-07T17:31:44.333Z,100008.50
2023-01-07T17:36:46.687Z,100002.53
2023-01-07T17:42:07.357Z,99993.72
2023-01-07T17:47:12.374Z,99999.88
2023-01-07T17:52:14.686Z,99992.78
2023-01-07T17:57:16.661Z,99965.13
2023-01-07T18:02:21.992Z,99965.09
2023-01-07T18:07:23.882Z,99966.88
2023-01-07T18:12:33.728Z,99958.06
2023-01-07T18:17:35.598Z,99958.31
2023-01-07T18:22:37.716Z,99972.78
2023-01-07T18:27:39.816Z,99956.69
2023-01-07T18:32:42.211Z,99949.31
2023-01-07T18:37:44.227Z,99948.66
2023-01-07T18:42:46.269Z,99943.31
2023-01-07T18:47:48.882Z,99952.72
2023-01-07T18:52:51.058Z,99951.69
2023-01-07T18:57:53.306Z,99956.06
2023-01-07T19:02:55.721Z,99952.63
2023-01-07T19:07:57.795Z,99947.81
2023-01-07T19:12:59.813Z,99959.44
2023-01-07T19:18:01.719Z,99962.25
2023-01-07T19:23:03.800Z,99962.59
2023-01-07T19:28:05.689Z,99968.31
2023-01-07T19:33:08.162Z,99973.97
2023-01-07T19:38:10.175Z,99971.72
2023-01-07T19:43:13.000Z,99948.47
2023-01-07T19:48:14.902Z,99941.91
2023-01-07T19:53:16.974Z,99948.84
2023-01-07T19:58:18.846Z,99935.59
2023-01-07T20:03:20.804Z,99939.00
2023-01-07T20:08:23.996Z,99922.97
2023-01-07T20:13:27.623Z,99922.22
2023-01-07T20:18:29.501Z,99931.91
2023-01-07T20:23:31.828Z,99923.94
2023-01-07T20:28:34.150Z,99929.25
2023-01-07T20:33:36.066Z,99914.16
2023-01-07T20:38:38.086Z,99917.66
2023-01-07T20:43:40.269Z,99920.16
2023-01-07T20:48:42.130Z,99908.09
2023-01-07T20:53:45.060Z,99909.72
2023-01-07T20:58:48.286Z,99912.63
2023-01-07T21:03:50.974Z,99905.72
2023-01-07T21:08:53.032Z,99910.47
2023-01-07T21:13:56.669Z,99923.16
2023-01-07T21:18:58.831Z,99922.22
2023-01-07T21:24:00.975Z,99922.69
2023-01-07T21:29:02.885Z,99908.94
2023-01-07T21:34:05.068Z,99898.91
2023-01-07T21:39:07.060Z,99890.94
2023-01-07T21:44:11.955Z,99893.31
2023-01-07T21:49:13.719Z,99891.41
2023-01-07T21:54:15.790Z,99891.41
2023-01-07T21:59:17.719Z,99901.19
2023-01-07T22:04:20.023Z,99910.00
2023-01-07T22:09:22.160Z,99895.88
2023-01-07T22:14:24.674Z,99874.38
2023-01-07T22:19:26.483Z,99891.63
2023-01-07T22:24:29.570Z,99886.69
2023-01-07T22:29:32.911Z,99874.28
2023-01-07T22:34:35.071Z,99873.53
2023-01-07T22:39:45.780Z,99852.56
2023-01-07T22:45:01.074Z,99854.28
2023-01-07T22:50:05.680Z,99843.56
2023-01-07T22:55:08.135Z,99834.00
2023-01-07T23:00:35.658Z,99836.81
2023-01-07T23:05:40.109Z,99837.22
2023-01-07T23:10:45.403Z,99848.69
2023-01-07T23:15:47.500Z,99829.72
2023-01-07T23:20:49.564Z,99831.91
2023-01-07T23:25:52.076Z,99811.44
2023-01-07T23:30:54.620Z,99811.25
2023-01-07T23:36:04.207Z,99803.69
2023-01-07T23:41:08.706Z,99802.63
2023-01-07T23:46:10.936Z,99809.06
2023-01-07T23:51:16.051Z,99812.56
2023-01-07T23:56:19.601Z,99787.94
